Portada
METAR-TAF:

METAR-TAF

Aeroports :

Hōfu, Japó

latitud: 34-02N, longitud: 131-33E, altitud: 2 m

Observació

L'informe es va fer fa 1 hora i 51 minuts, a les 02:18 UTC
Vent 3 kt del Nord-Est, variant entre Nord i Est
Temperatura 18°C
Humitat 94%
Pressió 1013 hPa
Visibilitat: 4500 m
Escasses núvols a una alçada de 800 ft
Núvols disperses a una alçada de 1500 ft
Cel ennuvolat a una alçada de 3000 ft
xàfecs de pluja, boirina

METAR: RJOF 240218Z 05003KT 010V080 4500 SHRA BR FEW008 SCT015 BKN030 18/17 Q1013 RMK 1ST008 3CU015 6CU030 A2993

Hora: 13:09 (04:09 UTC)


TAF: manca

Observacions i pronòstics meteorològics de més de 4000 aeroports (METAR i TAF).

Les estacions disponibles són els punts grocs i vermells al mapa.

Posi el ratolí al punt desitjat per veure el nom de l'estació.

Feu clic per veure les observacions i els pronòstics meteorològics.

Per canviar el mapa: feu clic els botons verds amb una creu de color negre per apropar; al botó verd amb un guió per allunyar la imatge; o en les fletxes verdes per a mapes adjacents.


METAR-TAF: